Westhampton, NY

4:01 PM EDT on April 21, 2015 (GMT -0400)
Brookhaven | | Change Station
CLOSE
Current Station
Airport
Location: Shirley,
Elevation: 82 ft
Nearby Weather Stations

Elev 82 ft 40.82 °N, 72.87 °W | Updated 5 minutes ago

Partly Cloudy
Partly Cloudy
64 °F
Feels Like 64 °F
N
8
Wind Variable Wind from West

Today
High -- | Low -- °F
--% Chance of Precip.
Yesterday
High -- | Low -- °F
Precip. -- in
6:03 AM 7:36 PM
Waxing Crescent, 12% visible
Pressure 29.65 in
Visibility 10.0 miles
Clouds Overcast 5500 ft
Dew Point 40 °F
Humidity 41%
Rainfall 0.01 in
Snow Depth Not available.
UV 2 out of 12
Pollen 6.00 out of 12
Air Quality Not available.
Flu Activity Widespread
METAR KHWV 211956Z AUTO 27007KT 10SM OVC055 18/04 A2964 RMK AO2 SLP038 T01780044 TSNO

More Conditions Fewer Conditions

Pressure 29.65 in
Visibility 10.0 miles
Clouds Overcast 5500 ft
Dew Point 40 °F
Humidity 41%
Rainfall 0.01 in
Snow Depth Not available.
UV 2 out of 12
Pollen 6.00 out of 12
Air Quality Not available.
Flu Activity Widespread
METAR KHWV 211956Z AUTO 27007KT 10SM OVC055 18/04 A2964 RMK AO2 SLP038 T01780044 TSNO

More Conditions Fewer Conditions

10-Day Weather Forecast

Almanac

Astronomy

Apr. 21, 2015 Rise Set
Actual Time
Civil Twilight
Nautical Twilight
Astronomical Twilight
Moon
Length of Visible Light
Length of Day
Tomorrow will be .
, % of the Moon is Illuminated

Today's Extremes

State Highs State Lows

Community

WunderPhotos

Upload Photos

1,815,526 photos uploaded!

WunderBlogs® & News

Nearby

Air Quality

  Air Quality AQ Index Pollutant
Not available.

Snow Depth

Station Depth Elevation

Earthquake Activity

City Distance Mag. Time & Date
Minimum magnitude displayed is 2.5.

Coastal Water Temperatures

Place Temperature

Stations

Nearby Weather Stations

Station Location Temp. Windchill Dew Point Humidity Wind Precip. Elev Updated Type